createdAt,value
2018-07-05T00:01:33.691Z,7.23
2018-07-05T00:04:14.458Z,5.90
2018-07-05T00:06:55.649Z,5.07
2018-07-05T00:09:36.840Z,5.05
2018-07-05T00:12:18.258Z,4.60
2018-07-05T00:14:58.708Z,5.92
2018-07-05T00:17:39.753Z,4.90
2018-07-05T00:20:22.125Z,5.25
2018-07-05T00:23:03.542Z,5.87
2018-07-05T00:25:44.930Z,6.07
2018-07-05T00:28:26.176Z,6.13
2018-07-05T00:31:07.138Z,5.80
2018-07-05T00:33:48.554Z,5.30
2018-07-05T00:36:30.275Z,5.10
2018-07-05T00:39:11.852Z,5.50
2018-07-05T00:41:53.242Z,5.37
2018-07-05T00:44:34.468Z,5.10
2018-07-05T00:47:16.005Z,5.23
2018-07-05T00:49:57.244Z,4.90
2018-07-05T00:52:38.598Z,4.45
2018-07-05T00:55:20.153Z,4.70
2018-07-05T00:58:01.350Z,4.40
2018-07-05T01:00:42.728Z,4.97
2018-07-05T01:03:23.777Z,5.03
2018-07-05T01:06:05.140Z,4.97
2018-07-05T01:08:46.620Z,5.00
2018-07-05T01:11:27.962Z,5.35
2018-07-05T01:14:08.874Z,5.13
2018-07-05T01:16:50.350Z,5.30
2018-07-05T01:19:31.243Z,4.47
2018-07-05T01:22:11.927Z,5.20
2018-07-05T01:24:53.166Z,4.43
2018-07-05T01:27:37.199Z,5.08
2018-07-05T01:30:19.693Z,5.10
2018-07-05T01:33:00.777Z,4.53
2018-07-05T01:35:42.293Z,4.93
2018-07-05T01:38:23.140Z,4.93
2018-07-05T01:41:04.418Z,4.37
2018-07-05T01:43:45.834Z,5.03
2018-07-05T01:46:26.878Z,4.60
2018-07-05T01:49:08.251Z,3.67
2018-07-05T01:51:49.658Z,4.13
2018-07-05T01:54:30.884Z,4.10
2018-07-05T01:57:12.010Z,4.63
2018-07-05T01:59:53.216Z,4.33
2018-07-05T02:02:34.367Z,4.20
2018-07-05T02:05:15.674Z,4.10
2018-07-05T02:07:56.975Z,4.87
2018-07-05T02:10:38.526Z,4.37
2018-07-05T02:13:19.919Z,5.60
2018-07-05T02:16:01.340Z,5.60
2018-07-05T02:18:42.047Z,4.57
2018-07-05T02:21:23.246Z,4.77
2018-07-05T02:24:04.232Z,4.90
2018-07-05T02:26:45.609Z,4.37
2018-07-05T02:29:26.395Z,5.20
2018-07-05T02:32:07.557Z,4.33
2018-07-05T02:34:48.527Z,5.10
2018-07-05T02:37:34.833Z,5.00
2018-07-05T02:40:15.292Z,5.50
2018-07-05T02:42:56.377Z,4.03
2018-07-05T02:45:37.602Z,4.70
2018-07-05T02:48:18.629Z,5.80
2018-07-05T02:50:59.636Z,5.97
2018-07-05T02:53:41.050Z,5.80
2018-07-05T02:56:21.930Z,6.63
2018-07-05T02:59:03.277Z,6.00
2018-07-05T03:01:44.696Z,6.60
2018-07-05T03:04:26.233Z,6.07
2018-07-05T03:07:07.442Z,6.60
2018-07-05T03:09:48.978Z,5.90
2018-07-05T03:12:30.229Z,6.45
2018-07-05T03:15:11.301Z,6.27
2018-07-05T03:17:53.098Z,6.47
2018-07-05T03:20:33.711Z,7.05
2018-07-05T03:23:14.907Z,6.30
2018-07-05T03:25:55.850Z,6.90
2018-07-05T03:28:36.949Z,6.28
2018-07-05T03:31:17.737Z,6.20
2018-07-05T03:33:58.927Z,7.20
2018-07-05T03:36:40.300Z,6.22
2018-07-05T03:39:20.945Z,6.60
2018-07-05T03:42:02.280Z,6.37
2018-07-05T03:44:43.721Z,7.27
2018-07-05T03:47:24.947Z,6.93
2018-07-05T03:50:06.495Z,6.42
2018-07-05T03:52:47.474Z,6.40
2018-07-05T03:55:28.752Z,7.70
2018-07-05T03:58:10.085Z,6.30
2018-07-05T04:00:51.164Z,5.73
2018-07-05T04:03:32.580Z,6.28
2018-07-05T04:06:13.500Z,5.77
2018-07-05T04:08:54.764Z,5.93
2018-07-05T04:11:35.812Z,5.83
2018-07-05T04:14:17.320Z,6.30
2018-07-05T04:16:58.299Z,5.90
2018-07-05T04:19:44.815Z,5.55
2018-07-05T04:22:25.833Z,5.60
2018-07-05T04:25:07.337Z,6.47
2018-07-05T04:27:47.993Z,6.20
2018-07-05T04:30:28.838Z,5.67
2018-07-05T04:33:10.019Z,7.00
2018-07-05T04:35:50.840Z,6.90
2018-07-05T04:38:32.290Z,7.10
2018-07-05T04:41:13.814Z,6.73
2018-07-05T04:43:55.202Z,6.67
2018-07-05T04:46:36.008Z,8.03
2018-07-05T04:49:17.576Z,7.37
2018-07-05T04:51:58.485Z,7.20
2018-07-05T04:54:39.791Z,7.43
2018-07-05T04:57:21.323Z,7.40
2018-07-05T05:00:02.711Z,8.00
2018-07-05T05:02:43.594Z,7.50
2018-07-05T05:05:24.520Z,9.10
2018-07-05T05:08:05.628Z,8.33
2018-07-05T05:10:46.407Z,8.07
2018-07-05T05:13:27.832Z,7.80
2018-07-05T05:16:09.250Z,7.00
2018-07-05T05:18:50.178Z,7.70
2018-07-05T05:21:31.168Z,7.37
2018-07-05T05:24:12.338Z,7.37
2018-07-05T05:26:53.497Z,7.43
2018-07-05T05:29:35.076Z,8.17
2018-07-05T05:32:16.456Z,7.43
2018-07-05T05:34:57.684Z,7.03
2018-07-05T05:37:39.225Z,7.77
2018-07-05T05:40:20.609Z,7.17
2018-07-05T05:43:01.581Z,6.45
2018-07-05T05:45:42.487Z,6.73
2018-07-05T05:48:23.522Z,6.70
2018-07-05T05:51:04.929Z,6.72
2018-07-05T05:53:46.165Z,7.57
2018-07-05T05:56:27.678Z,7.30
2018-07-05T05:59:09.077Z,7.03
2018-07-05T06:01:50.467Z,6.20
2018-07-05T06:04:31.682Z,6.53
2018-07-05T06:07:12.138Z,6.77
2018-07-05T06:09:53.799Z,7.17
2018-07-05T06:12:35.028Z,6.17
2018-07-05T06:15:16.598Z,6.40
2018-07-05T06:17:57.951Z,7.23
2018-07-05T06:20:38.895Z,6.70
2018-07-05T06:23:20.207Z,6.00
2018-07-05T06:26:01.276Z,6.15
2018-07-05T06:28:41.951Z,6.43
2018-07-05T06:31:23.298Z,6.57
2018-07-05T06:34:04.265Z,6.47
2018-07-05T06:36:45.195Z,6.27
2018-07-05T06:39:26.432Z,7.00
2018-07-05T06:42:07.457Z,7.12
2018-07-05T06:44:48.930Z,6.33
2018-07-05T06:47:30.255Z,5.92
2018-07-05T06:50:11.293Z,6.00
2018-07-05T06:52:52.547Z,6.50
2018-07-05T06:55:33.209Z,5.70
2018-07-05T06:58:14.630Z,5.60
2018-07-05T07:00:56.024Z,5.40
2018-07-05T07:03:37.398Z,5.60
2018-07-05T07:06:18.635Z,4.93
2018-07-05T07:08:59.999Z,5.23
2018-07-05T07:11:41.088Z,4.80
2018-07-05T07:14:22.736Z,5.03
2018-07-05T07:17:04.325Z,5.87
2018-07-05T07:19:45.489Z,5.50
2018-07-05T07:22:27.025Z,5.20
2018-07-05T07:25:07.877Z,5.80
2018-07-05T07:27:49.041Z,5.23
2018-07-05T07:30:30.431Z,5.40
2018-07-05T07:33:11.377Z,6.30
2018-07-05T07:35:52.065Z,5.40
2018-07-05T07:38:33.197Z,6.28
2018-07-05T07:41:13.920Z,5.80
2018-07-05T07:43:42.499Z,5.60
2018-07-05T07:46:11.846Z,5.60
2018-07-05T07:48:40.792Z,5.60
2018-07-05T07:51:09.324Z,5.37
2018-07-05T07:53:38.161Z,4.77
2018-07-05T07:56:07.276Z,4.50
2018-07-05T07:58:36.221Z,5.30
2018-07-05T08:01:04.882Z,4.73
2018-07-05T08:03:34.010Z,4.97
2018-07-05T08:06:03.231Z,4.57
2018-07-05T08:08:31.875Z,5.13
2018-07-05T08:11:00.883Z,4.03
2018-07-05T08:13:29.979Z,4.00
2018-07-05T08:15:58.809Z,4.27
2018-07-05T08:18:27.907Z,3.98
2018-07-05T08:20:57.338Z,3.62
2018-07-05T08:23:26.517Z,3.10
2018-07-05T08:25:55.605Z,3.60
2018-07-05T08:28:24.550Z,3.50
2018-07-05T08:30:53.375Z,3.00
2018-07-05T08:33:22.467Z,3.40
2018-07-05T08:35:51.415Z,3.00
2018-07-05T08:38:20.030Z,3.35
2018-07-05T08:40:48.976Z,2.20
2018-07-05T08:43:17.890Z,2.47
2018-07-05T08:45:47.167Z,3.00
2018-07-05T08:48:16.243Z,2.87
2018-07-05T08:50:45.354Z,2.70
2018-07-05T08:53:14.045Z,2.83
2018-07-05T08:55:42.532Z,2.53
2018-07-05T08:58:11.827Z,3.00
2018-07-05T09:00:40.772Z,2.50
2018-07-05T09:03:09.895Z,2.60
2018-07-05T09:05:38.941Z,2.70
2018-07-05T09:08:07.777Z,2.90
2018-07-05T09:10:36.848Z,2.73
2018-07-05T09:13:06.110Z,2.67
2018-07-05T09:15:35.017Z,3.13
2018-07-05T09:18:04.081Z,2.90
2018-07-05T09:20:32.718Z,2.67
2018-07-05T09:23:01.954Z,3.00
2018-07-05T09:25:31.061Z,2.70
2018-07-05T09:28:00.132Z,2.45
2018-07-05T09:30:28.852Z,2.58
2018-07-05T09:32:57.917Z,2.83
2018-07-05T09:35:26.868Z,2.60
2018-07-05T09:37:55.701Z,2.90
2018-07-05T09:40:24.399Z,4.40
2018-07-05T09:42:52.980Z,3.20
2018-07-05T09:45:22.198Z,2.57
2018-07-05T09:47:51.106Z,2.10
2018-07-05T09:50:19.732Z,2.45
2018-07-05T09:52:48.688Z,2.50
2018-07-05T09:55:17.581Z,2.55
2018-07-05T09:57:46.451Z,2.80
2018-07-05T10:00:15.433Z,3.13
2018-07-05T10:02:44.649Z,3.27
2018-07-05T10:05:13.298Z,3.00
2018-07-05T10:07:42.037Z,3.00
2018-07-05T10:10:10.712Z,2.70
2018-07-05T10:12:39.639Z,3.10
2018-07-05T10:15:08.801Z,3.40
2018-07-05T10:17:37.893Z,3.13
2018-07-05T10:20:06.917Z,3.43
2018-07-05T10:22:35.727Z,3.40
2018-07-05T10:25:04.877Z,3.23
2018-07-05T10:27:33.569Z,3.47
2018-07-05T10:30:14.509Z,3.37
2018-07-05T10:32:55.964Z,3.27
2018-07-05T10:35:24.927Z,2.87
2018-07-05T10:37:57.326Z,3.53
2018-07-05T10:40:38.877Z,3.17
2018-07-05T10:43:19.754Z,3.47
2018-07-05T10:46:01.175Z,3.83
2018-07-05T10:48:42.551Z,3.50
2018-07-05T10:51:23.741Z,3.57
2018-07-05T10:54:05.295Z,2.80
2018-07-05T10:56:46.467Z,3.10
2018-07-05T10:59:27.656Z,3.00
2018-07-05T11:02:08.886Z,2.70
2018-07-05T11:04:49.775Z,2.90
2018-07-05T11:07:31.406Z,3.47
2018-07-05T11:10:12.633Z,3.47
2018-07-05T11:12:53.754Z,3.60
2018-07-05T11:15:35.002Z,3.08
2018-07-05T11:18:16.538Z,2.83
2018-07-05T11:20:57.931Z,2.90
2018-07-05T11:23:39.293Z,2.83
2018-07-05T11:26:20.270Z,2.70
2018-07-05T11:29:01.667Z,2.80
2018-07-05T11:31:42.231Z,2.55
2018-07-05T11:34:23.612Z,2.83
2018-07-05T11:37:05.001Z,2.77
2018-07-05T11:39:45.893Z,2.90
2018-07-05T11:42:27.242Z,3.03
2018-07-05T11:45:08.345Z,2.67
2018-07-05T11:47:49.772Z,3.00
2018-07-05T11:50:30.996Z,2.60
2018-07-05T11:53:12.860Z,2.40
2018-07-05T11:55:54.285Z,2.40
2018-07-05T11:58:35.713Z,2.27
2018-07-05T12:01:16.881Z,2.83
2018-07-05T12:03:58.285Z,2.40
2018-07-05T12:06:39.378Z,2.40
2018-07-05T12:09:20.809Z,2.70
2018-07-05T12:12:02.196Z,2.30
2018-07-05T12:14:43.108Z,2.50
2018-07-05T12:17:24.746Z,2.73
2018-07-05T12:20:06.344Z,2.22
2018-07-05T12:22:46.945Z,2.10
2018-07-05T12:25:27.863Z,2.20
2018-07-05T12:28:08.853Z,2.15
2018-07-05T12:30:49.820Z,2.00
2018-07-05T12:33:31.057Z,2.10
2018-07-05T12:36:12.446Z,2.57
2018-07-05T12:38:53.824Z,2.00
2018-07-05T12:41:34.964Z,2.50
2018-07-05T12:44:16.350Z,2.33
2018-07-05T12:46:57.732Z,2.47
2018-07-05T12:49:38.950Z,2.57
2018-07-05T12:52:19.429Z,2.47
2018-07-05T12:55:01.478Z,2.63
2018-07-05T12:57:42.861Z,2.27
2018-07-05T13:00:24.074Z,2.00
2018-07-05T13:03:04.813Z,2.30
2018-07-05T13:05:45.569Z,2.13
2018-07-05T13:08:27.140Z,2.00
2018-07-05T13:11:08.559Z,1.80
2018-07-05T13:13:49.760Z,1.90
2018-07-05T13:16:31.321Z,1.93
2018-07-05T13:19:12.634Z,2.10
2018-07-05T13:21:54.090Z,2.00
2018-07-05T13:24:35.075Z,2.53
2018-07-05T13:27:16.290Z,2.30
2018-07-05T13:29:57.695Z,2.10
2018-07-05T13:32:39.071Z,2.00
2018-07-05T13:35:20.025Z,2.13
2018-07-05T13:38:01.179Z,1.90
2018-07-05T13:40:42.361Z,2.07
2018-07-05T13:43:23.826Z,1.77
2018-07-05T13:46:05.197Z,2.12
2018-07-05T13:48:45.807Z,2.40
2018-07-05T13:51:27.594Z,2.87
2018-07-05T13:54:08.636Z,3.08
2018-07-05T13:56:49.457Z,3.70
2018-07-05T13:59:31.031Z,3.62
2018-07-05T14:02:12.312Z,3.87
2018-07-05T14:04:53.595Z,3.50
2018-07-05T14:07:34.669Z,3.00
2018-07-05T14:10:15.610Z,2.87
2018-07-05T14:12:57.541Z,2.90
2018-07-05T14:15:38.167Z,2.60
2018-07-05T14:18:20.825Z,2.40
2018-07-05T14:21:02.123Z,3.00
2018-07-05T14:23:43.385Z,3.23
2018-07-05T14:26:24.458Z,2.80
2018-07-05T14:29:06.106Z,2.20
2018-07-05T14:31:47.226Z,2.30
2018-07-05T14:34:28.570Z,2.83
2018-07-05T14:37:09.598Z,3.13
2018-07-05T14:39:50.979Z,3.20
2018-07-05T14:42:32.267Z,3.00
2018-07-05T14:45:13.759Z,3.00
2018-07-05T14:47:54.287Z,2.80
2018-07-05T14:50:35.710Z,2.57
2018-07-05T14:53:16.440Z,2.53
2018-07-05T14:55:58.064Z,2.20
2018-07-05T14:58:39.429Z,2.10
2018-07-05T15:01:20.640Z,2.30
2018-07-05T15:04:01.279Z,2.70
2018-07-05T15:06:42.781Z,2.50
2018-07-05T15:09:23.578Z,2.80
2018-07-05T15:12:04.968Z,3.00
2018-07-05T15:14:46.115Z,3.00
2018-07-05T15:17:28.239Z,2.80
2018-07-05T15:20:09.279Z,2.90
2018-07-05T15:22:50.441Z,3.10
2018-07-05T15:25:31.667Z,3.43
2018-07-05T15:28:12.870Z,2.87
2018-07-05T15:30:54.423Z,3.10
2018-07-05T15:33:35.404Z,3.40
2018-07-05T15:36:16.759Z,5.83
2018-07-05T15:38:58.174Z,3.30
2018-07-05T15:41:39.404Z,3.63
2018-07-05T15:44:20.933Z,3.47
2018-07-05T15:47:01.926Z,3.10
2018-07-05T15:49:43.155Z,3.70
2018-07-05T15:52:24.286Z,11.93
2018-07-05T15:55:05.501Z,4.08
2018-07-05T15:57:47.066Z,4.10
2018-07-05T16:00:28.272Z,3.33
2018-07-05T16:03:09.820Z,3.30
2018-07-05T16:05:51.046Z,3.63
2018-07-05T16:08:32.173Z,9.03
2018-07-05T16:11:13.540Z,5.03
2018-07-05T16:13:54.798Z,5.50
2018-07-05T16:16:36.266Z,4.15
2018-07-05T16:19:17.701Z,3.80
2018-07-05T16:21:58.669Z,3.77
2018-07-05T16:24:39.969Z,3.40
2018-07-05T16:27:20.954Z,3.47
2018-07-05T16:30:02.034Z,3.00
2018-07-05T16:32:43.414Z,2.93
2018-07-05T16:35:24.760Z,3.40
2018-07-05T16:38:06.030Z,2.30
2018-07-05T16:40:47.167Z,2.70
2018-07-05T16:43:28.311Z,3.00
2018-07-05T16:46:09.316Z,2.90
2018-07-05T16:48:50.702Z,2.57
2018-07-05T16:51:32.080Z,2.60
2018-07-05T16:54:13.057Z,2.55
2018-07-05T16:56:54.033Z,2.83
2018-07-05T16:59:35.402Z,2.47
2018-07-05T17:02:16.327Z,2.70
2018-07-05T17:04:57.266Z,2.67
2018-07-05T17:07:38.606Z,2.40
2018-07-05T17:10:19.695Z,2.57
2018-07-05T17:13:01.174Z,2.60
2018-07-05T17:15:42.413Z,2.37
2018-07-05T17:18:23.916Z,2.23
2018-07-05T17:21:05.107Z,2.33
2018-07-05T17:23:46.096Z,2.70
2018-07-05T17:26:26.763Z,2.57
2018-07-05T17:29:08.196Z,2.10
2018-07-05T17:31:49.599Z,2.00
2018-07-05T17:34:30.801Z,2.20
2018-07-05T17:37:12.186Z,2.37
2018-07-05T17:39:53.622Z,2.40
2018-07-05T17:42:34.304Z,2.60
2018-07-05T17:45:15.513Z,3.60
2018-07-05T17:47:57.069Z,2.47
2018-07-05T17:50:38.041Z,2.40
2018-07-05T17:53:19.016Z,2.67
2018-07-05T17:56:00.008Z,2.63
2018-07-05T17:58:42.087Z,2.70
2018-07-05T18:01:23.431Z,2.90
2018-07-05T18:04:04.974Z,2.60
2018-07-05T18:06:46.210Z,2.80
2018-07-05T18:09:27.335Z,2.77
2018-07-05T18:12:08.307Z,2.60
2018-07-05T18:14:49.060Z,2.80
2018-07-05T18:17:30.675Z,2.90
2018-07-05T18:20:11.914Z,2.60
2018-07-05T18:22:53.444Z,2.40
2018-07-05T18:25:34.814Z,2.62
2018-07-05T18:28:15.633Z,2.07
2018-07-05T18:30:57.178Z,2.20
2018-07-05T18:33:38.397Z,2.20
2018-07-05T18:36:19.451Z,2.40
2018-07-05T18:39:00.360Z,2.10
2018-07-05T18:41:41.760Z,2.00
2018-07-05T18:44:22.714Z,1.93
2018-07-05T18:47:03.876Z,2.10
2018-07-05T18:49:44.670Z,2.08
2018-07-05T18:52:26.058Z,2.00
2018-07-05T18:55:07.597Z,1.97
2018-07-05T18:57:48.500Z,2.00
2018-07-05T19:00:29.905Z,2.13
2018-07-05T19:03:10.456Z,2.07
2018-07-05T19:05:51.915Z,2.50
2018-07-05T19:08:33.315Z,1.90
2018-07-05T19:11:14.525Z,2.37
2018-07-05T19:13:55.648Z,2.20
2018-07-05T19:16:37.784Z,3.20
2018-07-05T19:19:19.235Z,3.50
2018-07-05T19:22:00.218Z,2.27
2018-07-05T19:24:41.373Z,2.47
2018-07-05T19:27:22.399Z,2.43
2018-07-05T19:30:03.972Z,2.70
2018-07-05T19:32:45.324Z,2.37
2018-07-05T19:35:26.629Z,2.00
2018-07-05T19:38:07.638Z,2.03
2018-07-05T19:40:48.979Z,1.97
2018-07-05T19:43:30.481Z,1.70
2018-07-05T19:46:11.417Z,1.70
2018-07-05T19:48:52.674Z,1.70
2018-07-05T19:51:33.791Z,2.10
2018-07-05T19:54:14.683Z,2.08
2018-07-05T19:56:56.174Z,1.70
2018-07-05T19:59:37.558Z,2.05
2018-07-05T20:02:18.945Z,1.97
2018-07-05T20:05:00.167Z,2.33
2018-07-05T20:07:41.717Z,1.52
2018-07-05T20:10:22.982Z,1.80
2018-07-05T20:13:04.757Z,1.83
2018-07-05T20:15:45.819Z,1.67
2018-07-05T20:18:26.847Z,2.10
2018-07-05T20:21:07.461Z,1.72
2018-07-05T20:23:49.043Z,2.00
2018-07-05T20:26:30.834Z,2.00
2018-07-05T20:29:12.021Z,2.10
2018-07-05T20:31:53.299Z,2.03
2018-07-05T20:34:34.738Z,2.00
2018-07-05T20:37:16.129Z,2.30
2018-07-05T20:39:57.106Z,2.50
2018-07-05T20:42:38.481Z,9.30
2018-07-05T20:45:19.875Z,2.77
2018-07-05T20:48:01.113Z,2.10
2018-07-05T20:50:42.644Z,2.33
2018-07-05T20:53:23.883Z,2.10
2018-07-05T20:56:05.417Z,2.20
2018-07-05T20:58:46.749Z,2.30
2018-07-05T21:01:28.142Z,2.17
2018-07-05T21:04:09.548Z,2.30
2018-07-05T21:06:50.822Z,2.10
2018-07-05T21:09:32.177Z,2.60
2018-07-05T21:12:13.716Z,2.07
2018-07-05T21:14:54.730Z,2.20
2018-07-05T21:17:35.671Z,2.30
2018-07-05T21:20:17.058Z,2.63
2018-07-05T21:22:58.313Z,2.30
2018-07-05T21:25:39.420Z,2.27
2018-07-05T21:28:20.705Z,2.50
2018-07-05T21:31:02.037Z,2.40
2018-07-05T21:33:43.417Z,2.40
2018-07-05T21:36:24.399Z,2.40
2018-07-05T21:39:05.904Z,2.90
2018-07-05T21:41:47.323Z,3.08
2018-07-05T21:44:29.031Z,2.53
2018-07-05T21:47:10.328Z,2.87
2018-07-05T21:49:51.701Z,3.40
2018-07-05T21:52:33.276Z,2.60
2018-07-05T21:55:13.634Z,3.07
2018-07-05T21:57:55.227Z,2.70
2018-07-05T22:00:36.973Z,2.27
2018-07-05T22:03:18.318Z,2.90
2018-07-05T22:05:59.379Z,2.47
2018-07-05T22:08:40.289Z,2.60
2018-07-05T22:11:21.733Z,2.93
2018-07-05T22:14:02.496Z,2.90
2018-07-05T22:16:49.827Z,2.37
2018-07-05T22:19:35.700Z,2.57
2018-07-05T22:22:21.608Z,3.00
2018-07-05T22:25:07.888Z,3.30
2018-07-05T22:27:53.683Z,3.77
2018-07-05T22:30:39.600Z,3.70
2018-07-05T22:33:21.489Z,5.40
2018-07-05T22:36:02.022Z,4.20
2018-07-05T22:38:43.246Z,4.28
2018-07-05T22:41:24.003Z,4.27
2018-07-05T22:44:05.234Z,3.60
2018-07-05T22:46:46.282Z,3.98
2018-07-05T22:49:27.400Z,4.60
2018-07-05T22:52:08.520Z,3.80
2018-07-05T22:54:49.489Z,3.93
2018-07-05T22:57:30.841Z,4.10
2018-07-05T23:00:11.876Z,4.53
2018-07-05T23:02:53.170Z,4.20
2018-07-05T23:05:34.159Z,4.17
2018-07-05T23:08:15.015Z,4.47
2018-07-05T23:10:56.076Z,4.50
2018-07-05T23:13:37.545Z,4.70
2018-07-05T23:16:18.510Z,4.70
2018-07-05T23:18:59.890Z,4.20
2018-07-05T23:21:40.878Z,4.15
2018-07-05T23:24:22.273Z,4.57
2018-07-05T23:27:03.965Z,4.40
2018-07-05T23:29:44.856Z,5.33
2018-07-05T23:32:25.855Z,5.30
2018-07-05T23:35:07.398Z,5.58
2018-07-05T23:37:48.638Z,5.55
2018-07-05T23:40:30.175Z,5.20
2018-07-05T23:43:11.555Z,5.47
2018-07-05T23:45:52.372Z,5.30
2018-07-05T23:48:33.947Z,5.50
2018-07-05T23:51:15.222Z,5.33
2018-07-05T23:53:57.095Z,5.30
2018-07-05T23:56:37.983Z,6.47
2018-07-05T23:59:19.300Z,5.70
